Time;durP1;ratioP1;P1;durP2;ratioP2;P2;SDS_P1;SDS_P2;PMS_P1;PMS_P2;Temp;Humidity;BMP_temperature;BMP_pressure;BME280_temperature;BME280_humidity;BME280_pressure;Samples;Min_cycle;Max_cycle;Signal;HPM_P1;HPM_P2
2022/04/27 00:01:49;;;;;;;6.47;3.65;;;;;;;11.36;62.53;101591.25;5022585;28;20587;-57
2022/04/27 00:04:15;;;;;;;4.13;3.63;;;;;;;11.31;62.69;101590.34;5026323;28;20580;-55
2022/04/27 00:06:42;;;;;;;3.38;3.05;;;;;;;11.31;62.55;101593.84;5025528;28;20252;-60
2022/04/27 00:09:08;;;;;;;4.05;3.70;;;;;;;11.28;62.71;101591.19;5025053;28;20261;-56
2022/04/27 00:11:36;;;;;;;4.03;3.50;;;;;;;11.33;63.04;101591.22;5021114;28;20606;-56
2022/04/27 00:14:03;;;;;;;4.13;3.72;;;;;;;11.31;63.76;101591.22;5018449;28;20235;-56
2022/04/27 00:16:29;;;;;;;4.53;4.13;;;;;;;11.24;63.95;101592.03;5019834;28;20245;-55
2022/04/27 00:18:56;;;;;;;4.25;3.85;;;;;;;11.13;64.98;101593.66;5019595;28;20233;-56
2022/04/27 00:21:22;;;;;;;4.45;3.88;;;;;;;11.07;65.19;101597.09;5022834;28;20272;-56
2022/04/27 00:23:49;;;;;;;4.82;3.55;;;;;;;11.04;65.89;101596.19;5019656;28;20236;-54
2022/04/27 00:26:15;;;;;;;4.43;4.07;;;;;;;10.98;66.88;101596.97;5026124;28;20271;-56
2022/04/27 00:28:43;;;;;;;6.20;3.78;;;;;;;10.88;67.59;101590.78;5025100;28;20715;-59
2022/04/27 00:31:09;;;;;;;6.00;3.63;;;;;;;10.84;68.25;101599.44;5025168;28;20235;-55
2022/04/27 00:33:35;;;;;;;4.57;4.15;;;;;;;10.82;67.87;101590.69;5023576;28;20815;-56
2022/04/27 00:36:02;;;;;;;4.87;4.37;;;;;;;10.79;68.24;101598.53;5023855;28;20267;-56
2022/04/27 00:38:28;;;;;;;5.33;4.63;;;;;;;10.74;68.59;101597.59;5023199;28;20260;-55
2022/04/27 00:40:55;;;;;;;4.20;3.90;;;;;;;10.71;68.30;101597.56;5024597;28;20252;-55
2022/04/27 00:43:35;;;;;;;5.73;4.60;;;;;;;10.68;68.98;101601.03;5019682;28;20579;-56
2022/04/27 00:46:03;;;;;;;5.77;4.50;;;;;;;10.63;69.25;101600.06;5025553;28;20294;-56
2022/04/27 00:48:29;;;;;;;6.77;4.87;;;;;;;10.61;70.48;101598.31;5024948;28;20260;-55
2022/04/27 00:50:56;;;;;;;9.27;4.07;;;;;;;10.59;71.76;101615.78;5023994;28;20233;-55
2022/04/27 00:53:22;;;;;;;5.37;4.50;;;;;;;10.53;71.99;101608.72;5021747;28;20232;-56
2022/04/27 00:55:49;;;;;;;5.67;4.40;;;;;;;10.47;71.61;101606.88;5023951;28;20239;-57
2022/04/27 00:58:16;;;;;;;5.83;4.40;;;;;;;10.41;70.21;101625.16;5010488;28;20264;-55
2022/04/27 01:00:43;;;;;;;5.20;4.13;;;;;;;10.41;69.38;101619.91;5019684;28;20282;-54
2022/04/27 01:03:11;;;;;;;4.00;3.70;;;;;;;10.36;69.51;101616.34;5012892;28;20290;-55
2022/04/27 01:05:38;;;;;;;4.23;3.83;;;;;;;10.31;69.59;101628.50;5023383;28;20240;-55
2022/04/27 01:08:04;;;;;;;4.67;4.27;;;;;;;10.25;69.69;101628.41;5023340;28;20232;-55
2022/04/27 01:10:31;;;;;;;6.23;4.47;;;;;;;10.25;69.98;101628.41;5024222;28;20256;-56
2022/04/27 01:12:58;;;;;;;4.57;4.17;;;;;;;10.18;70.22;101621.28;5021937;28;20233;-56
2022/04/27 01:15:32;;;;;;;6.50;3.70;;;;;;;10.16;70.46;101628.28;5023563;28;20236;-56
2022/04/27 01:18:45;;;;;;;4.20;3.20;;;;;;;10.09;70.60;101632.53;5081332;27;20566;-55
2022/04/27 01:21:12;;;;;;;4.67;3.70;;;;;;;10.01;71.19;101628.91;5055555;28;20603;-55
2022/04/27 01:23:39;;;;;;;6.93;4.13;;;;;;;9.97;71.93;101634.97;5054098;28;20251;-55
2022/04/27 01:26:06;;;;;;;7.53;4.43;;;;;;;9.93;71.69;101641.00;5050794;28;20297;-55
2022/04/27 01:28:35;;;;;;;6.83;4.27;;;;;;;9.86;72.25;101647.91;5040417;28;20285;-56
2022/04/27 01:31:03;;;;;;;4.23;3.83;;;;;;;9.80;72.21;101639.94;5036669;28;20228;-56
2022/04/27 01:33:30;;;;;;;5.83;4.30;;;;;;;9.74;72.81;101640.72;5041985;28;20243;-55
2022/04/27 01:35:58;;;;;;;7.80;4.70;;;;;;;9.64;73.04;101644.03;5041570;28;20236;-56
2022/04/27 01:38:26;;;;;;;4.03;3.73;;;;;;;9.63;73.59;101644.91;5040498;28;20289;-55
2022/04/27 01:40:53;;;;;;;4.83;4.40;;;;;;;9.61;74.03;101645.72;5042606;28;20243;-56
2022/04/27 01:43:23;;;;;;;5.03;4.13;;;;;;;9.54;74.17;101648.22;5045303;28;20252;-54
2022/04/27 01:45:49;;;;;;;5.07;4.60;;;;;;;9.51;74.35;101650.81;5041752;28;20255;-55
2022/04/27 01:48:16;;;;;;;7.30;4.17;;;;;;;9.49;74.50;101655.13;5041971;28;20693;-55
2022/04/27 01:50:42;;;;;;;5.50;4.97;;;;;;;9.41;74.73;101651.50;5038366;28;20649;-56
2022/04/27 01:55:54;;;;;;;5.00;4.47;;;;;;;9.38;76.26;101653.19;5037479;28;20375;-56
2022/04/27 01:58:20;;;;;;;6.53;4.63;;;;;;;9.34;76.32;101652.25;5026028;28;20312;-55
2022/04/27 02:00:47;;;;;;;5.13;4.70;;;;;;;9.31;76.73;101660.03;5020381;28;20260;-56
2022/04/27 02:03:14;;;;;;;5.93;5.07;;;;;;;9.27;76.72;101658.22;5024838;28;20228;-56
2022/04/27 02:05:41;;;;;;;8.93;4.63;;;;;;;9.22;77.49;101659.84;5043582;28;20616;-55
2022/04/27 02:08:08;;;;;;;12.00;5.50;;;;;;;9.26;76.89;101665.19;5028943;28;20694;-54
2022/04/27 02:10:35;;;;;;;9.43;4.90;;;;;;;9.19;77.36;101665.03;5020308;28;20630;-56
2022/04/27 02:13:03;;;;;;;5.87;5.27;;;;;;;9.12;77.61;101668.38;5027187;28;20232;-55
2022/04/27 02:15:29;;;;;;;7.57;5.37;;;;;;;9.07;78.31;101666.56;5040441;28;20306;-55
2022/04/27 02:17:55;;;;;;;5.80;5.30;;;;;;;9.04;78.42;101671.75;5041847;28;20235;-54
2022/04/27 02:20:23;;;;;;;6.30;5.70;;;;;;;9.03;78.42;101679.56;5043547;28;20243;-56
2022/04/27 02:22:50;;;;;;;6.73;5.23;;;;;;;8.95;78.15;101668.94;5041288;28;20240;-56
2022/04/27 02:25:17;;;;;;;5.73;5.20;;;;;;;8.91;78.08;101676.69;5031684;28;20234;-58
2022/04/27 02:27:43;;;;;;;5.93;5.43;;;;;;;8.87;78.03;101683.59;5040531;28;20240;-56
2022/04/27 02:30:12;;;;;;;6.40;5.80;;;;;;;8.93;77.84;101681.13;5026959;28;20228;-55
2022/04/27 02:32:39;;;;;;;6.33;4.73;;;;;;;8.93;78.15;101681.13;5009839;28;20323;-56
2022/04/27 02:35:06;;;;;;;6.10;4.90;;;;;;;8.95;77.34;101681.13;5002290;28;20225;-56
2022/04/27 02:37:33;;;;;;;6.37;5.73;;;;;;;8.96;77.42;101683.81;5008095;28;20280;-56
2022/04/27 02:40:00;;;;;;;5.90;5.30;;;;;;;8.96;77.06;101682.91;5015205;28;20761;-56
2022/04/27 02:42:27;;;;;;;6.33;5.33;;;;;;;8.94;77.31;101685.50;5015987;28;20642;-55
2022/04/27 02:44:53;;;;;;;6.07;5.47;;;;;;;8.84;77.23;101683.53;5006699;28;20439;-56
2022/04/27 02:47:21;;;;;;;8.20;5.67;;;;;;;8.81;77.86;101693.97;5007390;28;20258;-56
2022/04/27 02:52:31;;;;;;;7.53;5.80;;;;;;;8.74;78.43;101681.56;5022709;28;20283;-56
2022/04/27 02:54:58;;;;;;;9.03;5.63;;;;;;;8.72;78.68;101688.50;5018482;28;20266;-56
2022/04/27 02:57:25;;;;;;;7.70;6.23;;;;;;;8.72;78.65;101692.00;5033038;28;20343;-56
2022/04/27 02:59:51;;;;;;;7.60;5.80;;;;;;;8.70;78.57;101700.69;5027060;28;20239;-55
2022/04/27 03:02:18;;;;;;;6.67;6.00;;;;;;;8.71;78.41;101692.88;5024866;28;20819;-55
2022/04/27 03:04:45;;;;;;;7.93;6.20;;;;;;;8.70;79.12;101693.69;5017071;28;20253;-56
2022/04/27 03:07:12;;;;;;;6.30;5.70;;;;;;;8.66;79.25;101689.25;5014379;28;20259;-56
2022/04/27 03:09:38;;;;;;;7.10;6.00;;;;;;;8.62;79.28;101692.66;5017077;28;20252;-55
2022/04/27 03:12:06;;;;;;;9.70;6.37;;;;;;;8.65;79.49;101697.97;5022464;28;20298;-56
2022/04/27 03:14:32;;;;;;;6.97;6.27;;;;;;;8.65;79.46;101702.31;5010528;28;20315;-55
2022/04/27 03:16:58;;;;;;;6.40;4.93;;;;;;;8.59;79.69;101698.69;5004825;28;20241;-55
2022/04/27 03:19:25;;;;;;;6.80;5.73;;;;;;;8.60;79.78;101695.25;5001557;28;20233;-57
2022/04/27 03:21:53;;;;;;;9.40;6.13;;;;;;;8.59;80.28;101698.69;5008102;28;20233;-55
2022/04/27 03:24:19;;;;;;;6.70;5.60;;;;;;;8.54;80.25;101700.34;5007723;28;20233;-56
2022/04/27 03:26:47;;;;;;;7.70;6.43;;;;;;;8.43;80.60;101704.44;5008341;28;20265;-55
2022/04/27 03:29:13;;;;;;;6.07;5.43;;;;;;;8.36;81.46;101713.84;5010121;28;20912;-56
2022/04/27 03:31:40;;;;;;;6.47;5.80;;;;;;;8.34;82.53;101715.53;5017583;28;20245;-56
2022/04/27 03:34:06;;;;;;;8.43;7.27;;;;;;;8.32;83.37;101716.38;5025083;28;20766;-55
2022/04/27 03:36:32;;;;;;;8.10;6.63;;;;;;;8.26;83.15;101716.22;5026187;28;20298;-55
2022/04/27 03:39:00;;;;;;;7.27;6.10;;;;;;;8.21;82.77;101721.31;5013032;28;20260;-56
2022/04/27 03:41:28;;;;;;;7.57;5.70;;;;;;;8.25;82.18;101727.50;5012743;28;20290;-56
2022/04/27 03:43:54;;;;;;;8.30;6.33;;;;;;;8.23;82.12;101727.47;5003540;28;20237;-55
2022/04/27 03:46:20;;;;;;;6.13;5.53;;;;;;;8.19;81.96;101730.00;5001730;28;20722;-55
2022/04/27 03:48:47;;;;;;;6.17;5.63;;;;;;;8.20;81.82;101739.59;5016159;28;20256;-55
2022/04/27 03:51:13;;;;;;;6.77;6.17;;;;;;;8.21;81.73;101736.13;5015480;28;20237;-55
2022/04/27 03:53:40;;;;;;;7.57;6.77;;;;;;;8.21;81.63;101733.50;5009727;28;20315;-55
2022/04/27 03:56:07;;;;;;;6.87;6.17;;;;;;;8.15;81.96;101747.34;5011644;28;20824;-55
2022/04/27 03:58:34;;;;;;;6.47;5.87;;;;;;;8.04;82.36;101743.56;5024641;28;20294;-55
2022/04/27 04:01:00;;;;;;;7.17;6.47;;;;;;;7.99;83.13;101750.41;5021482;28;20819;-56
2022/04/27 04:03:27;;;;;;;7.00;6.30;;;;;;;8.01;83.86;101749.59;5021989;28;20229;-55
2022/04/27 04:05:54;;;;;;;7.03;6.33;;;;;;;8.03;83.52;101749.63;5024762;28;20951;-55
2022/04/27 04:08:20;;;;;;;6.87;5.87;;;;;;;8.04;83.15;101757.53;5019128;28;20714;-56
2022/04/27 04:10:46;;;;;;;7.33;6.33;;;;;;;8.04;83.20;101754.91;5023704;28;20244;-55
2022/04/27 04:13:14;;;;;;;7.73;6.33;;;;;;;8.03;82.70;101762.69;5017519;28;20320;-56
2022/04/27 04:15:40;;;;;;;6.77;5.97;;;;;;;8.01;82.84;101765.28;5008288;28;20303;-55
2022/04/27 04:18:07;;;;;;;7.63;6.23;;;;;;;8.02;82.79;101761.81;5006025;28;20260;-55
2022/04/27 04:20:33;;;;;;;13.17;6.47;;;;;;;8.01;83.16;101765.28;4996576;28;20652;-56
2022/04/27 04:23:00;;;;;;;6.50;5.90;;;;;;;8.02;83.48;101772.28;5005989;28;20789;-55
2022/04/27 04:30:56;;;;;;;7.40;6.07;;;;;;;8.02;84.37;101767.06;5022571;28;20283;-56
2022/04/27 04:33:23;;;;;;;6.80;6.20;;;;;;;8.02;84.52;101771.41;5011407;28;20234;-56
2022/04/27 04:35:50;;;;;;;9.97;7.50;;;;;;;7.96;84.56;101779.97;5011615;28;20268;-55
2022/04/27 04:38:16;;;;;;;7.27;6.57;;;;;;;7.93;84.65;101781.59;5019460;28;20240;-55
2022/04/27 04:40:42;;;;;;;7.23;6.43;;;;;;;7.93;84.79;101787.72;5020155;28;20233;-57
2022/04/27 04:43:09;;;;;;;6.87;6.27;;;;;;;7.97;84.10;101784.38;5003979;28;20247;-56
2022/04/27 04:45:35;;;;;;;9.83;6.80;;;;;;;8.02;83.51;101794.94;5012787;28;20233;-56
2022/04/27 04:48:03;;;;;;;10.90;8.10;;;;;;;7.97;83.47;101788.69;5004233;28;20622;-55
2022/04/27 04:50:30;;;;;;;9.33;7.70;;;;;;;8.04;83.77;101798.50;4998477;28;20740;-55
2022/04/27 04:52:56;;;;;;;8.77;6.80;;;;;;;8.09;83.62;101802.97;4999881;28;20265;-57
2022/04/27 04:55:23;;;;;;;8.93;7.03;;;;;;;8.18;83.00;101798.81;5015297;28;20319;-56
2022/04/27 04:57:49;;;;;;;6.90;6.20;;;;;;;8.19;82.72;101805.84;5017419;28;20311;-56
2022/04/27 05:00:16;;;;;;;9.90;7.00;;;;;;;8.22;82.63;101801.59;5016990;28;20245;-60
2022/04/27 05:02:42;;;;;;;10.93;7.50;;;;;;;8.28;82.75;101806.06;5023027;28;20594;-56
2022/04/27 05:05:10;;;;;;;9.03;7.67;;;;;;;8.36;82.18;101809.78;5021070;28;20253;-55
2022/04/27 05:07:36;;;;;;;10.53;7.10;;;;;;;8.38;82.01;101822.94;5023738;28;20282;-55
2022/04/27 05:10:04;;;;;;;8.30;6.83;;;;;;;8.43;82.12;101821.34;5016861;28;20679;-55
2022/04/27 05:12:30;;;;;;;7.97;7.13;;;;;;;8.50;81.43;101825.88;5006083;28;20259;-56
2022/04/27 05:14:57;;;;;;;7.73;6.97;;;;;;;8.59;80.57;101834.81;5004574;28;20257;-56
2022/04/27 05:17:24;;;;;;;7.07;6.37;;;;;;;8.60;80.07;101826.13;5006058;28;20295;-56
2022/04/27 05:19:52;;;;;;;10.43;7.50;;;;;;;8.69;79.64;101835.94;5001794;28;20320;-56
2022/04/27 05:22:19;;;;;;;10.37;7.07;;;;;;;8.75;78.80;101840.44;5000784;28;20229;-57
2022/04/27 05:24:46;;;;;;;8.63;6.70;;;;;;;8.77;78.25;101843.97;5017872;28;20236;-57
2022/04/27 05:27:13;;;;;;;7.83;6.50;;;;;;;8.77;78.89;101838.72;5020595;28;20236;-56
2022/04/27 05:32:23;;;;;;;9.50;6.60;;;;;;;8.80;78.88;101850.16;5021086;28;20246;-55
2022/04/27 05:34:52;;;;;;;8.83;7.07;;;;;;;8.84;78.66;101857.28;5023932;28;20232;-55
2022/04/27 05:37:20;;;;;;;10.57;7.37;;;;;;;8.92;78.54;101851.34;5021399;28;20259;-56
2022/04/27 05:39:46;;;;;;;9.63;7.30;;;;;;;8.93;78.45;101856.59;5019209;28;20302;-56
2022/04/27 05:42:13;;;;;;;14.10;8.70;;;;;;;8.93;77.60;101850.47;5021029;28;20260;-55
2022/04/27 05:44:40;;;;;;;8.63;7.53;;;;;;;9.03;77.96;101858.59;5021698;28;20228;-55
2022/04/27 05:47:06;;;;;;;8.67;7.77;;;;;;;9.10;77.62;101861.34;5018940;28;20282;-56
2022/04/27 05:49:33;;;;;;;10.23;6.50;;;;;;;9.17;76.87;101850.16;5017097;28;20260;-56
2022/04/27 05:51:59;;;;;;;11.13;7.20;;;;;;;9.22;76.61;101861.63;5017714;28;20282;-55
2022/04/27 05:54:26;;;;;;;7.27;5.83;;;;;;;9.27;77.20;101862.63;5018108;28;20690;-55
2022/04/27 05:56:53;;;;;;;10.23;7.40;;;;;;;9.33;76.78;101862.72;5017021;28;20796;-55
2022/04/27 05:59:20;;;;;;;10.53;6.57;;;;;;;9.44;74.17;101861.25;5008759;28;20233;-55
2022/04/27 06:01:47;;;;;;;7.37;6.50;;;;;;;9.56;73.65;101874.63;5011191;28;20231;-55
2022/04/27 06:04:13;;;;;;;7.53;6.83;;;;;;;9.70;72.47;101879.28;5016456;28;20232;-54
2022/04/27 06:06:40;;;;;;;9.50;7.27;;;;;;;9.73;71.26;101880.22;5009191;28;20754;-56
2022/04/27 06:09:06;;;;;;;8.37;7.07;;;;;;;9.84;70.80;101883.06;5025435;28;20287;-55
2022/04/27 06:11:34;;;;;;;10.07;6.33;;;;;;;9.92;70.32;101891.09;5027156;28;20232;-55
2022/04/27 06:14:00;;;;;;;8.97;7.53;;;;;;;10.00;69.27;101890.41;5024717;28;20515;-55
2022/04/27 06:16:27;;;;;;;8.53;7.63;;;;;;;9.90;68.82;101885.81;5027302;28;20310;-55
2022/04/27 06:18:53;;;;;;;12.67;6.63;;;;;;;9.86;68.44;101894.44;5023734;28;20303;-55
2022/04/27 06:21:19;;;;;;;11.07;7.23;;;;;;;9.90;68.69;101895.41;5017287;28;20290;-55
2022/04/27 06:23:46;;;;;;;14.67;7.53;;;;;;;9.94;68.96;101900.75;5016587;28;20299;-55
2022/04/27 06:26:13;;;;;;;11.37;6.93;;;;;;;9.92;69.47;101902.47;5019154;28;20323;-58
2022/04/27 06:28:41;;;;;;;7.73;6.87;;;;;;;9.94;69.19;101906.00;5017055;28;20324;-55
2022/04/27 06:31:08;;;;;;;8.13;6.30;;;;;;;10.00;68.31;101898.28;5024979;28;20229;-54
2022/04/27 06:33:34;;;;;;;12.90;8.17;;;;;;;10.08;67.42;101905.41;5024187;28;20326;-56
2022/04/27 06:36:01;;;;;;;7.60;6.70;;;;;;;10.20;67.35;101909.13;5025344;28;20232;-55
2022/04/27 06:38:27;;;;;;;10.60;7.53;;;;;;;10.33;66.21;101904.19;5007881;28;20287;-56
2022/04/27 06:40:53;;;;;;;9.60;6.90;;;;;;;10.48;64.66;101907.94;5015427;28;20801;-55
2022/04/27 06:43:20;;;;;;;8.53;7.43;;;;;;;10.56;63.31;101899.31;5022509;28;20233;-55
2022/04/27 06:45:47;;;;;;;8.50;6.97;;;;;;;10.66;63.03;101903.88;5023554;28;20248;-55
2022/04/27 06:48:14;;;;;;;7.30;6.30;;;;;;;10.79;61.40;101911.13;5018840;28;20233;-55
2022/04/27 06:50:40;;;;;;;10.53;7.33;;;;;;;10.86;61.20;101914.75;5007012;28;20233;-56
2022/04/27 06:53:06;;;;;;;8.90;6.40;;;;;;;10.90;61.77;101913.94;5007483;28;20288;-55
2022/04/27 06:55:33;;;;;;;8.77;6.30;;;;;;;10.98;61.54;101914.94;5010054;28;20268;-56
2022/04/27 06:57:59;;;;;;;8.10;6.70;;;;;;;11.16;60.45;101909.06;5024261;28;20224;-56
2022/04/27 07:00:26;;;;;;;8.53;6.93;;;;;;;11.26;58.96;101905.72;5017109;28;20691;-55
2022/04/27 07:02:54;;;;;;;9.55;6.82;;;;;;;11.40;58.11;101906.81;5025318;28;20236;-54
2022/04/27 07:05:21;;;;;;;9.30;6.28;;;;;;;11.45;58.23;101913.03;5028082;28;20229;-54
2022/04/27 07:07:48;;;;;;;8.53;6.33;;;;;;;11.54;58.14;101914.03;5007041;28;20244;-54
2022/04/27 07:10:17;;;;;;;8.23;5.57;;;;;;;11.65;57.91;101917.69;5009293;28;20232;-55
2022/04/27 07:12:43;;;;;;;8.85;5.68;;;;;;;11.82;58.23;101916.16;5013135;28;20253;-54
2022/04/27 07:15:10;;;;;;;7.40;5.95;;;;;;;11.96;57.14;101913.72;5021170;28;20240;-54
2022/04/27 07:17:36;;;;;;;7.47;5.63;;;;;;;12.06;57.35;101917.38;5010393;28;20242;-55
2022/04/27 07:20:05;;;;;;;8.82;6.43;;;;;;;12.14;56.54;101919.25;5020016;28;20264;-55
2022/04/27 07:22:32;;;;;;;7.47;5.82;;;;;;;12.24;57.47;101925.47;5013278;28;20761;-55
2022/04/27 07:24:58;;;;;;;7.00;6.30;;;;;;;12.30;56.33;101922.03;5005785;28;20225;-55
2022/04/27 07:27:25;;;;;;;7.20;6.50;;;;;;;12.43;55.48;101930.97;5006479;28;20257;-55
2022/04/27 07:29:51;;;;;;;8.10;7.30;;;;;;;12.74;54.33;101930.41;5019195;28;20236;-56
2022/04/27 07:32:17;;;;;;;9.65;5.78;;;;;;;12.83;53.45;101938.38;5000953;28;20234;-55
2022/04/27 07:34:44;;;;;;;7.75;5.97;;;;;;;12.95;53.35;101936.72;5004774;28;20584;-55
2022/04/27 07:37:12;;;;;;;12.80;6.93;;;;;;;13.25;52.08;101939.63;5012178;28;20237;-54
2022/04/27 07:39:38;;;;;;;10.23;7.43;;;;;;;13.33;51.17;101945.84;5008262;28;20718;-55
2022/04/27 07:42:06;;;;;;;7.35;6.72;;;;;;;13.45;50.81;101941.53;5018669;28;20551;-56
2022/04/27 07:44:32;;;;;;;8.93;5.80;;;;;;;13.48;50.80;101937.16;5021936;28;20232;-54
2022/04/27 07:46:58;;;;;;;7.25;5.47;;;;;;;13.60;50.19;101946.91;5016765;28;20237;-55
2022/04/27 07:49:24;;;;;;;9.18;5.15;;;;;;;13.62;50.23;101947.81;5003170;28;20433;-55
2022/04/27 07:51:51;;;;;;;7.63;5.32;;;;;;;13.65;50.19;101946.91;5012513;28;21028;-57
2022/04/27 07:54:19;;;;;;;6.57;4.60;;;;;;;13.75;49.67;101952.25;5020588;28;20236;-55
2022/04/27 07:56:45;;;;;;;7.40;5.13;;;;;;;13.89;48.11;101944.41;5003192;28;20299;-55
2022/04/27 07:59:11;;;;;;;10.82;5.95;;;;;;;14.04;47.53;101948.91;5004896;28;20303;-55
2022/04/27 08:01:38;;;;;;;7.18;4.80;;;;;;;14.23;46.82;101957.75;5002476;28;20328;-55
2022/04/27 08:04:05;;;;;;;4.72;4.22;;;;;;;14.45;45.50;101949.00;5001838;28;20291;-55
2022/04/27 08:06:31;;;;;;;5.63;4.28;;;;;;;14.48;45.00;101953.44;4999605;28;20238;-56
2022/04/27 08:08:57;;;;;;;4.95;4.10;;;;;;;14.52;44.89;101960.50;5002754;28;20339;-56
2022/04/27 08:11:25;;;;;;;6.35;4.10;;;;;;;14.73;44.02;101955.25;5004200;28;20271;-57
2022/04/27 08:13:52;;;;;;;6.95;4.55;;;;;;;14.77;43.45;101956.16;5000316;28;20233;-57
2022/04/27 08:16:18;;;;;;;6.40;3.42;;;;;;;14.99;42.43;101965.88;5004211;28;20892;-55
2022/04/27 08:18:45;;;;;;;5.28;3.92;;;;;;;15.11;41.19;101967.66;4992511;28;20262;-54
2022/04/27 08:21:15;;;;;;;3.28;2.97;;;;;;;15.12;41.05;101964.09;5003797;28;20237;-54
2022/04/27 08:23:42;;;;;;;4.50;3.88;;;;;;;15.16;41.00;101965.91;5004133;28;20237;-56
2022/04/27 08:26:10;;;;;;;5.50;2.88;;;;;;;15.43;38.75;101964.97;5006196;28;20283;-55
2022/04/27 08:28:39;;;;;;;3.20;2.50;;;;;;;15.48;38.39;101962.34;5015925;28;20252;-55
2022/04/27 08:31:06;;;;;;;3.45;3.03;;;;;;;15.55;38.77;101969.38;5029781;28;20269;-60
2022/04/27 08:33:32;;;;;;;4.47;2.85;;;;;;;15.67;38.88;101963.22;5020700;28;20236;-54
2022/04/27 08:35:59;;;;;;;3.90;2.20;;;;;;;15.82;37.65;101960.50;5020923;28;20294;-55
2022/04/27 08:38:26;;;;;;;3.53;2.58;;;;;;;16.00;37.19;101959.56;5017651;28;20248;-54
2022/04/27 08:40:52;;;;;;;3.22;2.22;;;;;;;16.12;36.93;101966.59;5020616;28;20325;-55
2022/04/27 08:43:19;;;;;;;3.70;3.10;;;;;;;16.28;34.72;101970.03;5022458;28;20239;-55
2022/04/27 08:45:47;;;;;;;4.60;2.70;;;;;;;16.31;35.71;101970.03;5023411;28;20241;-58
2022/04/27 08:48:17;;;;;;;2.95;2.42;;;;;;;16.42;36.70;101965.56;5013938;28;20256;-54
2022/04/27 08:50:46;;;;;;;3.50;2.65;;;;;;;16.24;36.72;101969.19;5013930;28;20236;-55
2022/04/27 08:53:12;;;;;;;6.10;2.50;;;;;;;16.55;36.17;101972.56;5019246;28;20652;-57
2022/04/27 08:55:40;;;;;;;3.67;2.72;;;;;;;16.78;35.09;101968.91;5014598;28;20241;-56
2022/04/27 08:58:08;;;;;;;3.30;2.50;;;;;;;16.99;34.43;101974.06;5012114;28;20235;-56
2022/04/27 09:00:34;;;;;;;7.82;3.08;;;;;;;16.93;34.42;101974.13;5014431;28;20247;-55
2022/04/27 09:03:26;;;;;;;2.80;2.10;;;;;;;16.99;34.48;101982.03;5019904;28;20274;-55
2022/04/27 09:05:54;;;;;;;2.97;2.20;;;;;;;17.20;33.68;101986.28;5013354;28;20232;-56
2022/04/27 09:08:20;;;;;;;2.97;2.28;;;;;;;17.22;33.36;101991.56;5023023;28;20286;-58
2022/04/27 09:10:47;;;;;;;3.22;2.72;;;;;;;17.13;34.12;101992.53;5005647;28;20221;-55
2022/04/27 09:13:14;;;;;;;2.97;2.45;;;;;;;17.29;33.30;101987.97;5018943;28;20239;-56
2022/04/27 09:15:40;;;;;;;4.90;2.55;;;;;;;17.36;32.54;101992.34;5016730;28;20295;-55
2022/04/27 09:21:01;;;;;;;5.35;3.30;;;;;;;17.44;32.56;101982.50;5026611;28;20306;-56
2022/04/27 09:23:36;;;;;;;2.83;2.30;;;;;;;17.44;32.56;101982.50;5014409;28;20228;-55
2022/04/27 09:26:15;;;;;;;2.63;2.38;;;;;;;17.93;31.32;101978.50;5022984;28;20737;-55
2022/04/27 09:28:47;;;;;;;2.70;2.15;;;;;;;17.93;32.40;101978.50;5023122;28;20235;-55
2022/04/27 09:31:26;;;;;;;2.13;1.92;;;;;;;18.05;32.08;101981.91;5020575;28;20240;-55
2022/04/27 09:33:58;;;;;;;2.75;2.20;;;;;;;18.04;32.59;101980.16;5020920;28;20224;-54
2022/04/27 09:36:25;;;;;;;4.55;2.10;;;;;;;17.91;32.76;101969.69;5005672;28;20253;-55
2022/04/27 09:38:53;;;;;;;2.45;2.25;;;;;;;18.32;28.05;101969.16;5011490;28;20228;-55
2022/04/27 09:41:37;;;;;;;1.90;1.50;;;;;;;18.38;27.76;101982.38;5023612;28;21031;-55
2022/04/27 09:44:04;;;;;;;2.50;1.95;;;;;;;17.98;29.47;101976.69;5015320;28;20252;-54
2022/04/27 09:46:31;;;;;;;3.40;2.05;;;;;;;17.66;31.31;101993.81;5014879;28;20294;-55
2022/04/27 09:49:14;;;;;;;2.10;1.95;;;;;;;17.65;31.91;101987.63;5016777;28;20272;-54
2022/04/27 09:51:49;;;;;;;2.30;2.00;;;;;;;17.65;31.62;101984.97;5024943;28;20232;-54
2022/04/27 09:54:20;;;;;;;2.67;2.33;;;;;;;17.26;32.10;101980.03;5033836;28;20235;-61
2022/04/27 09:56:49;;;;;;;2.45;2.10;;;;;;;17.17;32.26;101979.22;5028669;28;20267;-55
2022/04/27 09:59:17;;;;;;;2.85;2.20;;;;;;;17.09;33.13;101983.72;5031061;28;20228;-61
2022/04/27 10:01:44;;;;;;;3.13;1.92;;;;;;;17.05;32.92;101984.63;5026800;28;20240;-55
2022/04/27 10:04:11;;;;;;;3.67;2.38;;;;;;;17.08;31.69;101989.91;5020883;28;20236;-55
2022/04/27 10:06:38;;;;;;;2.53;2.33;;;;;;;16.96;31.73;101989.13;5017595;28;20241;-55
2022/04/27 10:09:05;;;;;;;5.10;2.13;;;;;;;16.71;32.31;101989.28;5016991;28;20233;-57
2022/04/27 10:11:32;;;;;;;2.72;2.08;;;;;;;16.30;33.13;101986.84;5014491;28;20287;-55
2022/04/27 10:14:00;;;;;;;2.58;1.73;;;;;;;15.80;35.13;101993.19;5020155;28;20315;-56
2022/04/27 10:16:27;;;;;;;2.20;2.00;;;;;;;16.07;35.34;101986.91;5027567;28;20330;-56
2022/04/27 10:18:53;;;;;;;2.25;1.90;;;;;;;16.28;33.91;101984.16;5010914;28;20233;-55
2022/04/27 10:21:39;;;;;;;3.17;1.90;;;;;;;16.68;32.76;101984.84;5018982;28;20264;-55
2022/04/27 10:24:07;;;;;;;6.22;2.35;;;;;;;16.83;31.82;101986.56;5018531;28;20232;-55
2022/04/27 10:26:34;;;;;;;2.50;2.17;;;;;;;16.62;32.40;101974.28;5012316;28;20250;-56
2022/04/27 10:29:02;;;;;;;8.18;2.70;;;;;;;17.24;31.06;101985.38;5010529;28;20562;-54
2022/04/27 10:31:59;;;;;;;1.75;1.65;;;;;;;17.27;30.22;101980.03;5012902;28;20233;-55
2022/04/27 10:34:26;;;;;;;2.60;1.75;;;;;;;17.59;30.29;101981.50;5011934;28;20225;-55
2022/04/27 10:36:53;;;;;;;3.05;1.83;;;;;;;17.71;32.03;101980.50;5011933;28;20356;-57
2022/04/27 10:39:23;;;;;;;3.92;2.28;;;;;;;17.93;29.89;101982.03;5005726;28;20264;-57
2022/04/27 10:41:54;;;;;;;1.58;1.48;;;;;;;17.69;30.27;101988.50;5025039;28;20760;-56
2022/04/27 10:44:21;;;;;;;2.55;1.92;;;;;;;17.55;31.36;101978.00;5013775;28;20252;-55
2022/04/27 10:46:47;;;;;;;2.15;1.60;;;;;;;17.61;31.17;101975.25;5026162;28;20233;-55
2022/04/27 10:49:25;;;;;;;3.00;2.70;;;;;;;18.12;29.53;101980.06;5021042;28;20291;-56
2022/04/27 10:52:00;;;;;;;2.45;1.77;;;;;;;18.23;28.94;101970.16;5006984;28;20589;-57
2022/04/27 10:54:28;;;;;;;3.35;2.03;;;;;;;18.42;29.07;101969.91;5011507;28;20231;-55
2022/04/27 10:56:56;;;;;;;1.75;1.65;;;;;;;18.43;28.91;101982.28;5010043;28;20237;-64
2022/04/27 10:59:45;;;;;;;2.75;2.15;;;;;;;18.73;28.53;101978.38;5017520;28;20228;-56
2022/04/27 11:02:32;;;;;;;3.78;2.33;;;;;;;18.15;28.97;101980.03;5012100;28;20887;-57
2022/04/27 11:04:59;;;;;;;2.72;1.90;;;;;;;17.95;29.82;101969.63;5021962;28;20307;-55
2022/04/27 11:07:36;;;;;;;2.00;1.80;;;;;;;18.00;29.48;101972.22;5009066;28;20314;-56
2022/04/27 11:10:22;;;;;;;1.90;1.80;;;;;;;18.22;29.86;101970.19;5007849;28;20229;-55
2022/04/27 11:12:50;;;;;;;3.67;2.05;;;;;;;18.40;28.92;101977.03;5016404;28;20601;-56
2022/04/27 11:15:21;;;;;;;1.80;1.70;;;;;;;18.32;29.14;101979.78;5025015;28;20321;-57
2022/04/27 11:17:52;;;;;;;2.53;2.33;;;;;;;18.23;29.59;101983.44;5024123;28;20246;-56
2022/04/27 11:20:27;;;;;;;2.55;2.20;;;;;;;17.94;30.11;101975.84;5024483;28;20232;-57
2022/04/27 11:22:54;;;;;;;3.47;2.67;;;;;;;17.77;30.11;101977.81;5024424;28;20236;-56
2022/04/27 11:25:26;;;;;;;1.60;1.50;;;;;;;17.84;30.61;101976.84;4998373;28;20477;-58
2022/04/27 11:27:53;;;;;;;2.50;2.10;;;;;;;18.14;30.09;101978.25;5018151;28;20224;-57
2022/04/27 11:30:20;;;;;;;2.65;2.45;;;;;;;18.53;28.97;101974.19;5008755;28;20237;-58
2022/04/27 11:32:47;;;;;;;3.40;2.55;;;;;;;18.73;29.56;101971.25;5010267;28;20236;-56
2022/04/27 11:35:13;;;;;;;2.95;2.03;;;;;;;19.04;28.55;101979.66;5005836;28;20292;-56
2022/04/27 11:37:40;;;;;;;2.50;2.30;;;;;;;19.25;27.33;101981.06;5002426;28;20233;-57
2022/04/27 11:40:14;;;;;;;2.35;2.10;;;;;;;18.76;28.63;101975.66;4998755;28;20310;-57
2022/04/27 11:42:46;;;;;;;2.63;2.35;;;;;;;18.26;29.36;101970.13;5017946;28;20259;-56
2022/04/27 11:45:14;;;;;;;2.05;1.77;;;;;;;18.87;28.04;101978.16;5004800;28;20250;-55
2022/04/27 11:47:40;;;;;;;2.10;1.70;;;;;;;19.01;27.72;101971.69;5044539;28;20240;-57
2022/04/27 11:50:07;;;;;;;2.13;2.03;;;;;;;18.72;28.92;101973.94;5022099;28;20274;-55